Time;durP1;ratioP1;P1;durP2;ratioP2;P2;SDS_P1;SDS_P2;PMS_P1;PMS_P2;Temp;Humidity;BMP_temperature;BMP_pressure;BME280_temperature;BME280_humidity;BME280_pressure;Samples;Min_cycle;Max_cycle;Signal;HPM_P1;HPM_P2
2022/07/27 00:00:12;;;;;;;1.60;1.50;;;16.90;99.90;;;;;;5025229;28;20084;-73
2022/07/27 00:02:44;;;;;;;2.38;1.77;;;16.80;99.90;;;;;;5021604;28;20038;-73
2022/07/27 00:05:16;;;;;;;1.40;1.20;;;16.80;99.90;;;;;;5019343;28;20410;-73
2022/07/27 00:07:48;;;;;;;10.00;3.10;;;16.90;99.90;;;;;;5002984;28;20064;-73
2022/07/27 00:10:20;;;;;;;1.42;1.10;;;16.90;99.90;;;;;;5009960;28;20509;-73
2022/07/27 00:12:52;;;;;;;1.73;1.50;;;17.00;99.90;;;;;;4994295;28;20049;-73
2022/07/27 00:15:24;;;;;;;2.10;1.30;;;17.10;99.90;;;;;;5018863;28;20394;-72
2022/07/27 00:17:51;;;;;;;2.47;1.40;;;17.10;99.90;;;;;;5020872;28;20493;-73
2022/07/27 00:20:22;;;;;;;2.40;1.42;;;17.20;99.90;;;;;;5019726;28;20042;-73
2022/07/27 00:22:55;;;;;;;2.10;1.50;;;17.20;99.90;;;;;;5002342;28;20088;-72
2022/07/27 00:25:27;;;;;;;3.65;1.30;;;17.30;99.90;;;;;;5019060;28;20049;-73
2022/07/27 00:27:59;;;;;;;3.22;1.73;;;17.20;99.90;;;;;;5018726;28;20038;-72
2022/07/27 00:30:30;;;;;;;2.05;1.60;;;17.20;99.90;;;;;;5019741;28;20046;-72
2022/07/27 00:33:04;;;;;;;1.85;1.52;;;17.20;99.90;;;;;;5001014;28;20446;-73
2022/07/27 00:35:36;;;;;;;1.90;1.70;;;17.10;99.90;;;;;;5017970;28;20501;-72
2022/07/27 00:38:07;;;;;;;4.43;1.60;;;17.00;99.90;;;;;;5022517;28;20045;-72
2022/07/27 00:40:39;;;;;;;2.50;1.60;;;17.10;99.90;;;;;;5019401;28;20433;-73
2022/07/27 00:43:11;;;;;;;1.83;1.67;;;17.10;99.90;;;;;;5019261;28;20041;-73
2022/07/27 00:45:43;;;;;;;2.10;1.90;;;17.00;99.90;;;;;;5019551;28;20046;-72
2022/07/27 00:48:14;;;;;;;2.50;1.70;;;16.90;99.90;;;;;;5019708;28;20045;-72
2022/07/27 00:50:47;;;;;;;2.13;1.60;;;16.80;99.90;;;;;;5034115;28;20045;-72
2022/07/27 00:53:19;;;;;;;2.58;1.50;;;16.80;99.90;;;;;;5020087;28;20056;-72
2022/07/27 00:55:50;;;;;;;1.83;1.33;;;16.70;99.90;;;;;;5018834;28;20052;-72
2022/07/27 00:58:22;;;;;;;3.33;1.40;;;16.70;99.90;;;;;;5020524;28;20041;-73
2022/07/27 01:00:54;;;;;;;3.47;1.20;;;16.70;99.90;;;;;;5004825;28;20045;-72
2022/07/27 01:03:26;;;;;;;1.90;1.70;;;16.70;99.90;;;;;;5019781;28;20042;-72
2022/07/27 01:05:58;;;;;;;3.75;1.95;;;16.70;99.90;;;;;;5017066;28;20046;-73
2022/07/27 01:08:30;;;;;;;1.65;1.48;;;16.80;99.90;;;;;;5019262;28;20042;-73
2022/07/27 01:11:03;;;;;;;1.40;1.30;;;16.80;99.90;;;;;;5019040;28;20042;-70
2022/07/27 01:13:34;;;;;;;2.00;1.30;;;16.80;99.90;;;;;;5019093;28;20073;-70
2022/07/27 01:16:07;;;;;;;3.05;1.48;;;16.80;99.90;;;;;;5002415;28;20050;-70
2022/07/27 01:18:39;;;;;;;1.10;1.00;;;16.90;99.90;;;;;;5019026;28;20050;-71
2022/07/27 01:21:10;;;;;;;1.20;1.10;;;16.90;99.90;;;;;;5018589;28;20307;-69
2022/07/27 01:23:42;;;;;;;1.52;1.20;;;17.00;99.90;;;;;;5021572;28;20052;-71
2022/07/27 01:26:09;;;;;;;2.05;1.45;;;17.00;99.90;;;;;;5033885;28;20081;-70
2022/07/27 01:28:45;;;;;;;4.93;1.85;;;17.00;99.90;;;;;;5019232;28;20066;-72
2022/07/27 01:31:16;;;;;;;2.20;2.00;;;17.00;99.90;;;;;;5018797;28;20525;-73
2022/07/27 01:33:43;;;;;;;3.28;2.20;;;17.00;99.90;;;;;;5017510;28;20042;-70
2022/07/27 01:36:15;;;;;;;2.50;2.25;;;16.90;99.90;;;;;;5003695;28;20103;-70
2022/07/27 01:38:47;;;;;;;3.70;2.08;;;16.90;99.90;;;;;;5019778;28;20451;-71
2022/07/27 01:41:19;;;;;;;4.70;1.95;;;17.00;99.90;;;;;;5024844;28;20382;-71
2022/07/27 01:43:50;;;;;;;1.70;1.60;;;17.00;99.90;;;;;;5005757;28;20097;-71
2022/07/27 01:46:22;;;;;;;2.00;1.60;;;17.00;99.90;;;;;;5022652;28;20054;-70
2022/07/27 01:48:54;;;;;;;3.50;2.03;;;17.00;99.90;;;;;;5005303;28;20046;-71
2022/07/27 01:51:26;;;;;;;2.15;1.45;;;16.90;99.90;;;;;;5022276;28;20052;-71
2022/07/27 01:53:58;;;;;;;2.22;1.77;;;17.00;99.90;;;;;;5008397;28;20037;-70
2022/07/27 01:56:29;;;;;;;1.75;1.40;;;17.00;99.90;;;;;;5021944;28;20053;-71
2022/07/27 01:59:01;;;;;;;1.90;1.75;;;16.90;99.90;;;;;;5004123;28;20465;-70
2022/07/27 02:01:33;;;;;;;4.57;2.10;;;16.90;99.90;;;;;;4998694;28;20037;-71
2022/07/27 02:04:05;;;;;;;5.03;3.50;;;16.90;99.90;;;;;;5007099;28;20056;-70
2022/07/27 02:06:36;;;;;;;3.80;2.63;;;16.80;99.90;;;;;;5025104;28;20505;-70
2022/07/27 02:09:03;;;;;;;3.22;2.38;;;16.80;99.90;;;;;;5021708;28;20054;-71
2022/07/27 02:14:20;;;;;;;3.17;2.80;;;16.80;99.90;;;;;;5006028;28;20041;-71
2022/07/27 02:16:52;;;;;;;2.60;2.35;;;16.90;99.90;;;;;;5020950;28;20057;-70
2022/07/27 02:19:24;;;;;;;2.88;2.30;;;16.80;99.90;;;;;;5020971;28;20516;-71
2022/07/27 02:21:56;;;;;;;2.80;2.22;;;16.70;99.90;;;;;;5021439;28;20042;-70
2022/07/27 02:24:22;;;;;;;3.67;2.35;;;16.60;99.90;;;;;;5021698;28;20041;-71
2022/07/27 02:26:54;;;;;;;2.47;1.52;;;16.70;99.90;;;;;;5022606;28;20045;-71
2022/07/27 02:29:26;;;;;;;2.83;1.95;;;16.70;99.90;;;;;;5020885;28;20049;-71
2022/07/27 02:31:58;;;;;;;2.22;1.63;;;16.80;99.90;;;;;;5020853;28;20502;-70
2022/07/27 02:34:29;;;;;;;1.55;1.40;;;16.80;99.90;;;;;;5018279;28;20588;-71
2022/07/27 02:37:01;;;;;;;3.13;1.40;;;16.90;99.90;;;;;;5022721;28;20052;-70
2022/07/27 02:39:33;;;;;;;3.55;1.30;;;17.00;99.90;;;;;;5020891;28;20432;-73
2022/07/27 02:42:05;;;;;;;2.78;1.30;;;17.00;99.90;;;;;;5022691;28;20112;-73
2022/07/27 02:44:37;;;;;;;1.92;1.58;;;17.00;99.90;;;;;;5023403;28;20115;-70
2022/07/27 02:47:09;;;;;;;2.35;1.40;;;17.10;99.90;;;;;;5012449;28;20046;-72
2022/07/27 02:49:40;;;;;;;2.58;1.40;;;17.10;99.90;;;;;;4995527;28;20045;-73
2022/07/27 02:52:12;;;;;;;1.33;1.10;;;17.10;99.90;;;;;;5019110;28;20041;-73
2022/07/27 02:54:39;;;;;;;2.80;1.60;;;17.10;99.90;;;;;;5021307;28;20046;-73
2022/07/27 02:57:10;;;;;;;3.38;2.25;;;17.20;99.90;;;;;;5020704;28;20045;-73
2022/07/27 02:59:42;;;;;;;2.88;1.80;;;17.20;99.90;;;;;;5004381;28;20056;-72
2022/07/27 03:02:14;;;;;;;2.83;1.85;;;17.20;99.90;;;;;;5022397;28;20052;-73
2022/07/27 03:04:41;;;;;;;3.95;1.55;;;17.20;99.90;;;;;;5004930;28;20057;-72
2022/07/27 03:07:12;;;;;;;1.98;1.38;;;17.20;99.90;;;;;;5016914;28;20573;-73
2022/07/27 03:09:44;;;;;;;2.42;1.38;;;17.20;99.90;;;;;;4998252;28;20057;-72
2022/07/27 03:12:16;;;;;;;2.33;1.70;;;17.10;99.90;;;;;;5010869;28;20046;-73
2022/07/27 03:14:48;;;;;;;2.97;1.70;;;17.10;99.90;;;;;;5011592;28;20042;-72
2022/07/27 03:17:19;;;;;;;2.72;1.60;;;17.00;99.90;;;;;;5002011;28;20135;-73
2022/07/27 03:19:51;;;;;;;1.85;1.60;;;17.00;99.90;;;;;;5022570;28;20496;-72
2022/07/27 03:22:23;;;;;;;2.70;1.88;;;17.00;99.90;;;;;;5007857;28;20045;-72
2022/07/27 03:24:55;;;;;;;1.88;1.48;;;17.00;99.90;;;;;;5003078;28;20056;-73
2022/07/27 03:27:27;;;;;;;4.40;2.08;;;17.00;99.90;;;;;;5017021;28;20038;-72
2022/07/27 03:29:59;;;;;;;1.75;1.65;;;17.20;99.90;;;;;;4996964;28;20045;-73
2022/07/27 03:32:31;;;;;;;4.30;1.70;;;17.70;99.90;;;;;;5014301;28;20042;-73
2022/07/27 03:35:03;;;;;;;3.17;2.72;;;18.00;99.90;;;;;;5016535;28;20044;-72
2022/07/27 03:37:35;;;;;;;2.67;2.00;;;18.20;99.90;;;;;;5004934;28;20073;-73
2022/07/27 03:40:08;;;;;;;2.90;2.00;;;18.20;99.90;;;;;;5017745;28;20048;-70
2022/07/27 03:42:40;;;;;;;2.42;1.63;;;18.10;99.90;;;;;;5000846;28;20055;-71
2022/07/27 03:45:12;;;;;;;2.15;1.67;;;17.90;99.90;;;;;;5014657;28;20046;-71
2022/07/27 03:47:44;;;;;;;2.92;2.30;;;17.70;99.90;;;;;;4994578;28;20073;-71
2022/07/27 03:50:16;;;;;;;3.17;1.60;;;17.60;99.90;;;;;;5014933;28;20037;-71
2022/07/27 03:52:47;;;;;;;2.33;1.63;;;17.50;99.90;;;;;;5010979;28;20056;-72
2022/07/27 03:55:20;;;;;;;3.90;2.00;;;17.40;99.90;;;;;;5023807;28;20041;-72
2022/07/27 03:57:51;;;;;;;2.90;1.50;;;17.30;99.90;;;;;;5020019;28;20052;-72
2022/07/27 04:00:23;;;;;;;4.07;1.60;;;17.10;99.90;;;;;;5005573;28;20414;-71
2022/07/27 04:02:55;;;;;;;2.17;1.42;;;17.00;99.90;;;;;;5019912;28;20104;-71
2022/07/27 04:05:27;;;;;;;1.77;1.50;;;17.00;99.90;;;;;;5013242;28;20050;-72
2022/07/27 04:07:58;;;;;;;1.73;1.63;;;16.80;99.90;;;;;;5020382;28;20041;-71
2022/07/27 04:10:30;;;;;;;2.22;1.60;;;16.80;99.90;;;;;;5011072;28;20037;-70
2022/07/27 04:13:02;;;;;;;3.13;2.38;;;16.70;99.90;;;;;;5036067;28;20037;-71
2022/07/27 04:15:34;;;;;;;1.98;1.80;;;16.70;99.90;;;;;;5018242;28;20041;-73
2022/07/27 04:18:06;;;;;;;2.17;1.73;;;16.60;99.90;;;;;;5021218;28;20052;-73
2022/07/27 04:20:38;;;;;;;5.20;1.70;;;16.60;99.90;;;;;;5023283;28;20050;-71
2022/07/27 04:23:09;;;;;;;3.78;1.63;;;16.60;99.90;;;;;;5010694;28;20057;-70
2022/07/27 04:25:36;;;;;;;3.55;1.40;;;16.50;99.90;;;;;;5017264;28;20056;-70
2022/07/27 04:28:08;;;;;;;4.15;1.98;;;16.50;99.90;;;;;;4994573;28;20502;-72
2022/07/27 04:30:34;;;;;;;3.13;1.90;;;16.50;99.90;;;;;;4995782;28;20140;-71
2022/07/27 04:33:06;;;;;;;2.97;1.42;;;16.40;99.90;;;;;;5025974;28;20041;-73
2022/07/27 04:35:33;;;;;;;2.65;1.70;;;16.40;99.90;;;;;;5021977;28;20417;-70
2022/07/27 04:38:05;;;;;;;3.78;1.63;;;16.40;99.90;;;;;;5020777;28;20054;-72
2022/07/27 04:40:36;;;;;;;3.47;1.80;;;16.50;99.90;;;;;;5019815;28;20052;-71
2022/07/27 04:43:08;;;;;;;3.45;1.80;;;16.60;99.90;;;;;;5022714;28;20055;-71
2022/07/27 04:45:40;;;;;;;2.95;1.70;;;16.70;99.90;;;;;;5021017;28;20050;-72
2022/07/27 04:48:11;;;;;;;8.30;1.98;;;16.80;99.90;;;;;;5031787;28;20049;-71
2022/07/27 04:50:45;;;;;;;6.97;2.45;;;16.90;99.90;;;;;;5009226;28;20037;-72
2022/07/27 04:53:17;;;;;;;11.73;4.90;;;17.00;99.90;;;;;;5016156;28;20073;-72
2022/07/27 04:55:49;;;;;;;20.33;4.85;;;17.10;99.90;;;;;;5020445;28;20540;-71
2022/07/27 04:58:21;;;;;;;11.00;4.35;;;17.10;99.90;;;;;;5022089;28;20041;-72
2022/07/27 05:00:52;;;;;;;10.27;4.75;;;17.10;99.90;;;;;;5017054;28;20057;-72
2022/07/27 05:03:24;;;;;;;8.20;3.80;;;17.10;99.90;;;;;;5040276;28;20048;-72
2022/07/27 05:05:56;;;;;;;8.65;4.20;;;17.20;99.90;;;;;;5021712;28;20528;-72
2022/07/27 05:08:23;;;;;;;6.95;3.30;;;17.20;99.90;;;;;;5014062;28;20069;-72
2022/07/27 05:10:54;;;;;;;6.93;3.15;;;17.20;99.90;;;;;;5011796;28;20056;-72
2022/07/27 05:13:26;;;;;;;6.68;3.38;;;17.30;99.90;;;;;;5014890;28;20404;-72
2022/07/27 05:15:58;;;;;;;3.92;2.95;;;17.40;99.90;;;;;;5006404;28;20034;-72
2022/07/27 05:18:29;;;;;;;6.97;3.97;;;17.40;99.90;;;;;;5029713;28;20045;-73
2022/07/27 05:21:01;;;;;;;6.65;4.30;;;17.50;99.90;;;;;;5022161;28;20046;-73
2022/07/27 05:23:33;;;;;;;7.40;4.07;;;17.60;99.90;;;;;;5017662;28;20096;-72
2022/07/27 05:26:05;;;;;;;5.75;3.10;;;17.60;99.90;;;;;;5016656;28;20406;-72
2022/07/27 05:28:37;;;;;;;5.50;3.35;;;17.60;99.90;;;;;;5035026;28;20049;-73
2022/07/27 05:31:08;;;;;;;7.03;3.95;;;17.70;99.90;;;;;;5017116;28;20068;-73
2022/07/27 05:33:35;;;;;;;7.78;4.50;;;17.70;99.90;;;;;;5018417;28;20056;-73
2022/07/27 05:36:02;;;;;;;5.35;3.10;;;17.80;99.90;;;;;;5019647;23;20046;-85
2022/07/27 05:38:29;;;;;;;4.35;2.50;;;17.90;99.90;;;;;;4998201;28;20592;-88
2022/07/27 05:40:55;;;;;;;4.22;2.65;;;17.90;99.90;;;;;;5008541;28;20132;-90
2022/07/27 05:43:22;;;;;;;4.28;2.47;;;18.00;99.90;;;;;;5029549;28;20137;-88
2022/07/27 05:45:54;;;;;;;4.97;2.40;;;18.00;99.90;;;;;;5030077;28;20037;-88
2022/07/27 05:48:21;;;;;;;6.53;2.10;;;18.10;99.90;;;;;;5052632;23;20947;-70
2022/07/27 05:50:52;;;;;;;2.38;2.13;;;18.00;99.90;;;;;;5032036;28;20037;-70
2022/07/27 05:53:24;;;;;;;3.75;2.38;;;18.10;99.90;;;;;;5044610;28;20056;-70
2022/07/27 05:55:56;;;;;;;4.55;2.30;;;18.10;99.90;;;;;;5039704;28;20060;-70
2022/07/27 05:58:28;;;;;;;3.40;2.20;;;18.10;99.90;;;;;;5053019;28;20053;-70
2022/07/27 06:01:00;;;;;;;2.90;2.13;;;18.20;99.90;;;;;;5053783;28;20063;-71
2022/07/27 06:03:31;;;;;;;4.90;2.15;;;18.20;99.90;;;;;;5065287;28;20046;-70
2022/07/27 06:08:54;;;;;;;5.07;2.70;;;18.30;99.90;;;;;;5053640;28;20029;-70
2022/07/27 06:11:26;;;;;;;4.45;2.40;;;18.40;99.90;;;;;;5047833;28;20041;-70
2022/07/27 06:13:54;;;;;;;4.45;3.50;;;18.40;99.90;;;;;;5061371;28;20037;-70
2022/07/27 06:16:26;;;;;;;;;;;18.50;99.90;;;;;;5053482;28;20137;-70
2022/07/27 06:18:58;;;;;;;3.15;2.65;;;18.50;99.90;;;;;;5053540;28;19944;-70
2022/07/27 06:21:30;;;;;;;7.38;3.13;;;18.60;99.90;;;;;;5052006;28;20416;-70
2022/07/27 06:24:02;;;;;;;4.78;2.28;;;18.60;99.90;;;;;;5049979;28;20049;-70
2022/07/27 06:26:34;;;;;;;5.57;2.03;;;18.60;99.90;;;;;;5051411;28;20047;-70
2022/07/27 06:29:05;;;;;;;4.38;1.90;;;18.60;99.90;;;;;;5068398;28;20052;-70
2022/07/27 06:31:37;;;;;;;2.95;2.00;;;18.70;99.90;;;;;;5049559;28;20493;-70
2022/07/27 06:34:09;;;;;;;2.75;2.25;;;18.80;99.90;;;;;;5050445;28;20393;-70
2022/07/27 06:36:43;;;;;;;3.65;1.95;;;18.90;99.90;;;;;;5051025;28;20054;-70
2022/07/27 06:39:15;;;;;;;2.58;2.17;;;18.90;99.90;;;;;;5066015;28;20045;-70
2022/07/27 06:41:47;;;;;;;2.22;1.77;;;18.90;99.90;;;;;;5055255;28;20055;-70
2022/07/27 06:44:20;;;;;;;5.67;2.33;;;19.00;99.90;;;;;;5052257;28;20033;-70
2022/07/27 06:46:51;;;;;;;3.92;2.45;;;19.10;99.90;;;;;;5048785;28;20049;-70
2022/07/27 06:49:23;;;;;;;3.50;2.17;;;19.20;99.90;;;;;;5063587;28;20488;-70
2022/07/27 06:51:55;;;;;;;9.90;3.05;;;19.20;99.90;;;;;;5056651;28;20398;-70
2022/07/27 06:54:27;;;;;;;3.78;2.40;;;19.20;99.90;;;;;;5071927;28;20054;-70
2022/07/27 06:56:58;;;;;;;7.57;2.72;;;19.30;99.90;;;;;;5070509;28;20037;-70
2022/07/27 06:59:31;;;;;;;3.30;2.50;;;19.40;99.90;;;;;;5071493;28;20044;-70
2022/07/27 07:02:03;;;;;;;5.55;2.72;;;19.50;99.90;;;;;;5071405;28;20059;-70
2022/07/27 07:04:35;;;;;;;3.28;2.72;;;19.60;99.90;;;;;;5052006;28;20045;-71
2022/07/27 07:07:07;;;;;;;3.90;2.65;;;19.60;99.90;;;;;;5053787;28;20053;-70
2022/07/27 07:09:39;;;;;;;5.93;3.10;;;19.70;99.90;;;;;;5053981;28;20040;-70
2022/07/27 07:12:10;;;;;;;3.42;2.60;;;19.80;99.90;;;;;;5071646;28;20045;-71
2022/07/27 07:14:43;;;;;;;9.02;2.72;;;19.90;99.90;;;;;;5067738;28;20055;-70
2022/07/27 07:17:14;;;;;;;5.22;2.70;;;19.90;99.90;;;;;;5063570;28;20049;-70
2022/07/27 07:19:46;;;;;;;4.05;2.65;;;20.00;99.90;;;;;;5052922;28;20048;-70
2022/07/27 07:22:18;;;;;;;4.32;2.35;;;20.00;99.90;;;;;;5069999;28;20049;-70
2022/07/27 07:24:45;;;;;;;6.32;2.30;;;20.10;99.90;;;;;;5059317;28;20040;-70
2022/07/27 07:27:19;;;;;;;4.72;2.78;;;20.20;99.90;;;;;;5068298;28;20043;-70
2022/07/27 07:29:46;;;;;;;4.80;2.78;;;20.30;99.90;;;;;;5056450;28;20048;-70
2022/07/27 07:32:21;;;;;;;3.50;2.60;;;20.40;99.90;;;;;;5071691;28;20040;-70
2022/07/27 07:34:53;;;;;;;7.10;2.60;;;20.50;99.90;;;;;;5052485;28;20526;-70
2022/07/27 07:37:25;;;;;;;4.55;2.53;;;20.60;99.90;;;;;;5051299;28;20051;-70
2022/07/27 07:39:58;;;;;;;5.25;2.50;;;20.70;99.90;;;;;;5071412;28;20045;-70
2022/07/27 07:42:29;;;;;;;3.05;2.83;;;20.80;99.90;;;;;;5071241;28;20527;-70
2022/07/27 07:45:01;;;;;;;3.80;2.55;;;21.00;99.90;;;;;;5068478;28;20512;-70
2022/07/27 07:47:33;;;;;;;3.15;2.25;;;21.20;99.90;;;;;;5070398;28;20079;-71
2022/07/27 07:50:06;;;;;;;3.97;2.30;;;21.30;99.90;;;;;;5068416;28;20135;-69
2022/07/27 07:52:38;;;;;;;5.22;2.72;;;21.40;99.90;;;;;;5070191;28;20029;-70
2022/07/27 07:55:10;;;;;;;3.35;2.10;;;21.50;99.90;;;;;;5069015;28;20443;-70
2022/07/27 07:57:37;;;;;;;2.83;1.83;;;21.60;99.90;;;;;;5053301;28;20415;-70
2022/07/27 08:00:09;;;;;;;3.33;2.13;;;21.60;99.90;;;;;;5062739;28;20067;-70
2022/07/27 08:02:45;;;;;;;2.50;1.80;;;21.60;99.90;;;;;;5071549;28;20044;-70
2022/07/27 08:05:17;;;;;;;3.58;2.05;;;21.60;99.90;;;;;;5070986;28;20290;-70
2022/07/27 08:07:50;;;;;;;3.90;2.20;;;21.60;99.90;;;;;;5071429;28;20044;-70
2022/07/27 08:10:22;;;;;;;3.47;2.35;;;21.50;99.90;;;;;;5070060;28;20049;-70
2022/07/27 08:12:55;;;;;;;3.80;2.20;;;21.50;99.90;;;;;;5067517;28;20036;-71
2022/07/27 08:15:28;;;;;;;3.33;1.88;;;21.60;99.90;;;;;;5050162;28;20041;-70
2022/07/27 08:17:59;;;;;;;3.22;2.25;;;21.70;99.90;;;;;;5052120;28;20055;-70
2022/07/27 08:20:27;;;;;;;4.95;2.50;;;21.70;99.90;;;;;;5067576;28;20535;-70
2022/07/27 08:22:59;;;;;;;3.28;1.80;;;21.80;99.90;;;;;;5066503;28;20070;-70
2022/07/27 08:25:31;;;;;;;3.10;1.98;;;21.80;99.90;;;;;;5040508;28;20048;-70
2022/07/27 08:28:03;;;;;;;4.32;2.03;;;22.00;99.90;;;;;;5074179;28;20048;-71
2022/07/27 08:30:34;;;;;;;4.68;1.83;;;22.10;99.90;;;;;;5078076;28;20071;-71
2022/07/27 08:33:06;;;;;;;2.75;1.77;;;22.20;99.90;;;;;;5058175;28;20058;-70
2022/07/27 08:35:33;;;;;;;4.95;1.88;;;22.40;99.90;;;;;;5051178;28;20530;-71
2022/07/27 08:38:08;;;;;;;2.53;1.93;;;22.50;99.90;;;;;;5053459;28;20037;-71
2022/07/27 08:40:40;;;;;;;3.45;1.75;;;22.70;99.90;;;;;;5069471;28;20356;-71
2022/07/27 08:43:18;;;;;;;2.10;1.90;;;22.90;99.90;;;;;;5068023;28;20114;-71
2022/07/27 08:45:55;;;;;;;2.72;2.10;;;22.90;99.90;;;;;;5068529;28;20298;-71
2022/07/27 08:48:29;;;;;;;3.60;2.03;;;22.90;99.90;;;;;;5052521;28;20052;-71
2022/07/27 08:51:01;;;;;;;3.47;2.30;;;23.10;99.90;;;;;;5048740;28;20051;-71
2022/07/27 08:53:33;;;;;;;2.17;1.63;;;23.20;99.90;;;;;;5068948;28;20054;-70
2022/07/27 08:56:01;;;;;;;4.88;2.10;;;23.40;99.90;;;;;;5070313;28;20481;-71
2022/07/27 08:58:32;;;;;;;8.83;2.73;;;23.40;99.10;;;;;;5061925;28;20511;-71
2022/07/27 09:01:04;;;;;;;3.47;1.90;;;23.30;99.30;;;;;;5069505;28;20298;-71
2022/07/27 09:03:36;;;;;;;4.28;1.88;;;23.30;99.30;;;;;;5069932;28;20049;-71
2022/07/27 09:06:08;;;;;;;2.20;2.00;;;23.40;99.10;;;;;;5068774;28;20123;-71
2022/07/27 09:08:40;;;;;;;2.75;1.73;;;23.40;99.20;;;;;;5070223;28;20063;-71
2022/07/27 09:11:14;;;;;;;2.72;2.03;;;23.40;98.70;;;;;;5070223;28;20041;-71
2022/07/27 09:13:45;;;;;;;5.15;2.00;;;23.50;98.50;;;;;;5055680;28;20033;-71
2022/07/27 09:16:29;;;;;;;3.20;1.77;;;23.50;98.80;;;;;;5051761;28;20493;-71
2022/07/27 09:19:06;;;;;;;5.40;2.05;;;23.50;98.40;;;;;;5052452;28;20064;-71
2022/07/27 09:21:41;;;;;;;4.45;2.00;;;23.60;98.80;;;;;;5053064;28;20044;-71
2022/07/27 09:24:14;;;;;;;2.03;1.70;;;23.80;98.80;;;;;;5054651;28;20515;-71
2022/07/27 09:26:41;;;;;;;3.13;1.50;;;24.00;97.50;;;;;;5068186;28;20048;-71
2022/07/27 09:29:14;;;;;;;4.68;2.13;;;24.10;96.80;;;;;;5035855;28;20045;-71
2022/07/27 09:31:50;;;;;;;4.32;1.80;;;24.30;96.70;;;;;;5070476;28;20059;-71
2022/07/27 09:34:32;;;;;;;6.00;1.92;;;24.40;95.30;;;;;;5068058;28;20037;-71
2022/07/27 09:37:05;;;;;;;2.10;1.48;;;24.50;95.60;;;;;;5068264;28;20067;-71
2022/07/27 09:39:38;;;;;;;;;;;24.60;95.10;;;;;;5046520;28;20048;-71
2022/07/27 09:42:17;;;;;;;1.65;1.55;;;24.80;95.30;;;;;;5068069;28;19920;-71
2022/07/27 09:44:49;;;;;;;4.20;1.55;;;24.70;93.50;;;;;;5035878;28;20154;-71
2022/07/27 09:47:26;;;;;;;2.70;1.40;;;24.70;93.80;;;;;;5063639;28;20064;-71
2022/07/27 09:50:19;;;;;;;2.28;1.65;;;24.80;94.00;;;;;;5069352;28;20116;-71
2022/07/27 09:52:46;;;;;;;1.35;1.20;;;24.90;92.60;;;;;;5069657;28;20045;-71
2022/07/27 09:55:13;;;;;;;3.17;1.38;;;25.00;91.70;;;;;;5062922;28;20501;-71
2022/07/27 09:57:55;;;;;;;2.63;1.42;;;25.10;92.10;;;;;;5068180;28;20055;-71
2022/07/27 10:00:27;;;;;;;3.40;1.60;;;25.30;91.90;;;;;;5069662;28;20131;-71
2022/07/27 10:02:59;;;;;;;3.47;1.30;;;25.50;90.20;;;;;;5039204;28;20102;-71
2022/07/27 10:05:31;;;;;;;3.38;1.55;;;25.60;91.00;;;;;;5052809;28;20475;-71
2022/07/27 10:08:03;;;;;;;1.98;1.50;;;25.80;90.60;;;;;;5055935;28;20049;-71
2022/07/27 10:10:35;;;;;;;4.55;1.90;;;25.80;89.90;;;;;;5063868;28;20047;-71
2022/07/27 10:13:07;;;;;;;4.25;1.40;;;25.70;88.70;;;;;;5071581;28;20109;-71
2022/07/27 10:15:40;;;;;;;1.52;1.13;;;25.70;83.30;;;;;;5069504;28;20123;-71
2022/07/27 10:18:19;;;;;;;1.98;1.17;;;25.60;81.80;;;;;;5073195;28;20036;-71
2022/07/27 10:20:52;;;;;;;3.05;1.20;;;25.50;81.60;;;;;;5069930;28;20054;-71
2022/07/27 10:23:26;;;;;;;2.50;1.50;;;25.40;82.30;;;;;;5072118;28;20075;-71
2022/07/27 10:26:19;;;;;;;2.40;1.40;;;25.30;82.90;;;;;;5066584;28;20049;-71
2022/07/27 10:28:58;;;;;;;3.83;1.60;;;25.30;84.80;;;;;;5069471;28;20068;-71
2022/07/27 10:31:48;;;;;;;2.78;1.50;;;25.30;86.10;;;;;;5068570;28;20048;-71
2022/07/27 10:34:40;;;;;;;2.83;1.30;;;25.30;84.40;;;;;;5064626;28;20558;-71
2022/07/27 10:37:29;;;;;;;2.75;1.35;;;25.30;81.30;;;;;;5063073;28;20036;-71
2022/07/27 10:43:16;;;;;;;3.88;1.40;;;25.50;81.30;;;;;;5072116;28;20511;-71
2022/07/27 10:45:50;;;;;;;2.97;1.50;;;25.80;82.30;;;;;;5069225;28;20079;-70
2022/07/27 10:48:36;;;;;;;5.28;1.63;;;25.70;82.90;;;;;;5067647;28;20041;-71
2022/07/27 10:51:09;;;;;;;4.03;1.50;;;25.80;84.30;;;;;;5040283;28;20048;-70
2022/07/27 10:53:43;;;;;;;6.88;1.65;;;25.60;83.80;;;;;;5026400;28;20052;-70
2022/07/27 10:56:44;;;;;;;2.70;1.50;;;25.50;84.90;;;;;;5069971;28;20047;-72
2022/07/27 10:59:38;;;;;;;2.15;1.40;;;25.60;84.60;;;;;;5042040;28;20032;-71
2022/07/27 11:02:12;;;;;;;3.72;1.95;;;25.70;84.60;;;;;;5065012;28;20481;-71
2022/07/27 11:04:51;;;;;;;7.20;1.60;;;25.80;86.40;;;;;;5062347;28;20064;-71
2022/07/27 11:07:24;;;;;;;2.35;1.60;;;26.10;84.40;;;;;;5069359;28;20120;-72
2022/07/27 11:09:51;;;;;;;4.05;1.77;;;26.40;83.10;;;;;;5061318;28;20040;-71
2022/07/27 11:12:27;;;;;;;4.50;1.83;;;26.40;83.10;;;;;;5066758;28;20044;-71
2022/07/27 11:15:00;;;;;;;2.40;1.85;;;26.50;83.90;;;;;;5071902;28;20064;-71
2022/07/27 11:17:31;;;;;;;3.53;1.80;;;26.50;82.60;;;;;;5070413;28;20510;-71
2022/07/27 11:20:04;;;;;;;2.47;1.50;;;26.50;81.20;;;;;;5051805;28;20044;-72
2022/07/27 11:22:38;;;;;;;1.60;1.30;;;26.30;81.70;;;;;;5058218;28;20044;-72
2022/07/27 11:25:10;;;;;;;5.30;1.80;;;26.20;80.40;;;;;;5066295;28;20534;-71
2022/07/27 11:27:46;;;;;;;4.57;1.70;;;26.00;79.10;;;;;;5070430;28;20519;-71
2022/07/27 11:30:26;;;;;;;3.28;1.70;;;25.80;79.40;;;;;;5071555;28;20401;-71
2022/07/27 11:33:02;;;;;;;3.13;1.55;;;25.70;80.40;;;;;;5049512;28;20040;-71
2022/07/27 11:35:29;;;;;;;4.40;2.25;;;25.60;78.90;;;;;;5068864;28;20050;-71
2022/07/27 11:38:04;;;;;;;2.28;2.08;;;25.60;81.80;;;;;;5050716;28;20060;-71
2022/07/27 11:40:49;;;;;;;2.78;1.80;;;25.50;82.40;;;;;;5062758;28;20045;-72
2022/07/27 11:43:39;;;;;;;3.65;1.83;;;25.60;82.10;;;;;;5067532;28;20044;-72
2022/07/27 11:46:17;;;;;;;2.67;1.92;;;25.90;81.50;;;;;;5065377;28;20531;-71
2022/07/27 11:48:56;;;;;;;2.65;2.00;;;25.90;80.60;;;;;;5061630;28;20117;-71
2022/07/27 11:51:28;;;;;;;7.60;2.10;;;26.00;81.90;;;;;;5061147;28;20123;-72
2022/07/27 11:54:03;;;;;;;2.63;1.83;;;26.00;82.00;;;;;;5066118;28;20039;-72
2022/07/27 11:56:37;;;;;;;4.45;2.00;;;26.20;79.80;;;;;;5047813;28;20135;-72
2022/07/27 11:59:11;;;;;;;6.90;2.10;;;26.30;81.60;;;;;;5059093;28;20029;-71
2022/07/27 12:01:50;;;;;;;6.97;2.28;;;26.50;80.80;;;;;;5064874;28;20044;-72
2022/07/27 12:04:25;;;;;;;2.47;2.15;;;26.50;77.30;;;;;;5064316;28;20052;-71
2022/07/27 12:07:03;;;;;;;3.17;2.30;;;26.50;77.80;;;;;;5064249;28;20497;-71
2022/07/27 12:09:44;;;;;;;4.93;2.00;;;26.50;77.50;;;;;;5057392;28;20053;-71
2022/07/27 12:12:24;;;;;;;2.47;1.73;;;26.50;78.60;;;;;;5087668;23;20453;-72
2022/07/27 12:15:01;;;;;;;2.97;1.80;;;26.50;76.10;;;;;;5022673;28;20042;-69
2022/07/27 12:17:37;;;;;;;3.22;2.13;;;26.40;76.10;;;;;;5039163;28;20045;-69
2022/07/27 12:20:15;;;;;;;3.97;1.67;;;26.60;76.40;;;;;;5041034;28;20048;-70
2022/07/27 12:22:52;;;;;;;3.45;2.20;;;26.70;75.70;;;;;;5019510;28;20046;-69
2022/07/27 12:25:28;;;;;;;3.25;2.17;;;26.60;75.30;;;;;;5033195;28;20820;-69
2022/07/27 12:28:05;;;;;;;3.03;2.25;;;26.50;76.40;;;;;;5021969;28;20313;-70
2022/07/27 12:30:33;;;;;;;3.13;2.08;;;26.50;75.00;;;;;;5017144;28;20412;-70
2022/07/27 12:33:24;;;;;;;4.10;2.33;;;26.60;75.40;;;;;;5040140;28;20044;-70
2022/07/27 12:35:58;;;;;;;4.97;2.28;;;26.70;75.60;;;;;;5019060;28;20059;-69
2022/07/27 12:38:35;;;;;;;2.60;2.13;;;26.70;76.20;;;;;;5006593;28;20045;-70
2022/07/27 12:41:02;;;;;;;3.78;2.25;;;26.80;76.00;;;;;;5019924;28;20062;-69
2022/07/27 12:43:34;;;;;;;3.15;1.80;;;26.90;75.60;;;;;;5021370;28;20056;-69
2022/07/27 12:46:11;;;;;;;3.80;2.33;;;27.00;75.10;;;;;;5010711;28;20498;-68
2022/07/27 12:48:42;;;;;;;4.05;1.90;;;27.20;73.20;;;;;;5034030;28;20059;-69
2022/07/27 12:51:22;;;;;;;4.45;2.05;;;27.30;73.30;;;;;;5039542;28;20037;-69
2022/07/27 12:53:54;;;;;;;3.20;2.00;;;27.40;74.00;;;;;;5029021;28;20045;-69
2022/07/27 12:56:21;;;;;;;2.53;1.90;;;27.40;74.40;;;;;;5018349;28;20046;-69
2022/07/27 12:59:03;;;;;;;4.20;2.15;;;27.30;72.10;;;;;;5035989;28;20049;-69
2022/07/27 13:01:35;;;;;;;4.07;2.00;;;27.10;71.80;;;;;;5024427;28;20048;-69
2022/07/27 13:04:07;;;;;;;5.00;1.92;;;26.90;71.80;;;;;;5015026;28;20048;-69
2022/07/27 13:06:39;;;;;;;3.38;2.15;;;26.80;71.80;;;;;;5036181;28;20058;-69
2022/07/27 13:09:10;;;;;;;3.22;2.03;;;27.00;72.90;;;;;;5017884;28;20033;-70
2022/07/27 13:11:42;;;;;;;2.80;2.22;;;27.30;72.50;;;;;;5033158;28;20417;-69
2022/07/27 13:14:14;;;;;;;2.92;2.33;;;27.50;70.10;;;;;;5030254;28;20493;-69
2022/07/27 13:16:46;;;;;;;4.67;2.00;;;27.50;70.70;;;;;;5021037;28;20046;-70
2022/07/27 13:19:18;;;;;;;3.08;2.15;;;27.30;71.80;;;;;;5021643;28;20555;-70
2022/07/27 13:21:50;;;;;;;3.55;2.38;;;27.20;72.50;;;;;;5019158;28;20046;-70
2022/07/27 13:24:21;;;;;;;3.57;2.00;;;27.10;71.90;;;;;;5031523;28;20048;-70